createdAt,value
2022-09-15T00:00:48.097Z,3.70
2022-09-15T00:02:51.706Z,3.80
2022-09-15T00:04:56.131Z,3.50
2022-09-15T00:06:59.062Z,4.10
2022-09-15T00:09:02.079Z,4.63
2022-09-15T00:11:07.560Z,3.40
2022-09-15T00:13:13.211Z,4.00
2022-09-15T00:15:17.613Z,4.33
2022-09-15T00:17:20.874Z,4.03
2022-09-15T00:19:23.822Z,3.80
2022-09-15T00:21:31.033Z,4.13
2022-09-15T00:23:34.279Z,4.10
2022-09-15T00:25:44.136Z,3.50
2022-09-15T00:27:47.202Z,4.83
2022-09-15T00:29:50.239Z,4.73
2022-09-15T00:31:53.190Z,3.50
2022-09-15T00:33:58.391Z,4.33
2022-09-15T00:36:04.566Z,3.47
2022-09-15T00:38:09.810Z,3.23
2022-09-15T00:40:12.916Z,3.90
2022-09-15T00:42:16.756Z,4.27
2022-09-15T00:45:02.221Z,3.80
2022-09-15T00:47:21.852Z,4.20
2022-09-15T00:49:27.506Z,3.83
2022-09-15T00:51:35.142Z,3.73
2022-09-15T00:53:39.699Z,4.10
2022-09-15T00:55:45.400Z,3.47
2022-09-15T00:57:51.787Z,3.90
2022-09-15T00:59:56.604Z,4.40
2022-09-15T01:02:04.348Z,4.20
2022-09-15T01:04:07.391Z,4.30
2022-09-15T01:06:13.463Z,4.30
2022-09-15T01:08:19.905Z,4.97
2022-09-15T01:10:27.217Z,4.10
2022-09-15T01:12:30.340Z,4.10
2022-09-15T01:14:33.325Z,4.30
2022-09-15T01:16:45.486Z,4.60
2022-09-15T01:18:56.397Z,4.60
2022-09-15T01:21:06.464Z,4.23
2022-09-15T01:23:32.104Z,4.20
2022-09-15T01:25:51.447Z,4.40
2022-09-15T01:28:13.969Z,4.47
2022-09-15T01:30:18.701Z,4.50
2022-09-15T01:32:43.286Z,4.37
2022-09-15T01:34:52.279Z,5.10
2022-09-15T01:36:58.681Z,4.33
2022-09-15T01:39:05.227Z,4.27
2022-09-15T01:41:11.512Z,3.97
2022-09-15T01:43:16.867Z,4.27
2022-09-15T01:45:23.491Z,4.20
2022-09-15T01:47:29.354Z,4.50
2022-09-15T01:49:35.920Z,4.17
2022-09-15T01:51:40.596Z,4.37
2022-09-15T01:53:43.589Z,4.53
2022-09-15T01:55:50.308Z,4.63
2022-09-15T01:57:53.349Z,4.37
2022-09-15T01:59:57.392Z,4.20
2022-09-15T02:02:05.236Z,5.03
2022-09-15T02:04:12.926Z,4.53
2022-09-15T02:06:21.604Z,4.47
2022-09-15T02:08:27.808Z,4.67
2022-09-15T02:10:36.102Z,4.77
2022-09-15T02:12:44.546Z,4.60
2022-09-15T02:14:53.590Z,5.30
2022-09-15T02:16:56.869Z,4.90
2022-09-15T02:19:11.952Z,4.70
2022-09-15T02:21:18.865Z,4.63
2022-09-15T02:23:26.831Z,4.80
2022-09-15T02:25:32.743Z,5.23
2022-09-15T02:27:38.894Z,4.53
2022-09-15T02:29:43.447Z,4.53
2022-09-15T02:31:47.026Z,4.67
2022-09-15T02:33:52.924Z,5.83
2022-09-15T02:35:57.366Z,6.43
2022-09-15T02:38:00.911Z,4.90
2022-09-15T02:40:04.635Z,4.70
2022-09-15T02:42:08.177Z,4.90
2022-09-15T02:44:11.966Z,5.40
2022-09-15T02:46:15.819Z,4.47
2022-09-15T02:48:18.858Z,4.37
2022-09-15T02:50:21.853Z,4.90
2022-09-15T02:52:26.407Z,4.87
2022-09-15T02:54:29.354Z,4.70
2022-09-15T02:56:32.402Z,4.70
2022-09-15T02:58:35.600Z,4.00
2022-09-15T03:00:38.835Z,4.03
2022-09-15T03:02:42.165Z,4.10
2022-09-15T03:04:45.182Z,4.30
2022-09-15T03:06:48.147Z,4.03
2022-09-15T03:08:53.845Z,4.10
2022-09-15T03:10:58.461Z,4.00
2022-09-15T03:13:01.863Z,4.17
2022-09-15T03:15:05.486Z,3.50
2022-09-15T03:17:08.576Z,4.10
2022-09-15T03:19:12.303Z,4.00
2022-09-15T03:21:16.966Z,4.07
2022-09-15T03:23:19.861Z,4.10
2022-09-15T03:25:27.377Z,3.90
2022-09-15T03:27:30.359Z,3.27
2022-09-15T03:29:33.355Z,3.70
2022-09-15T03:31:36.352Z,3.60
2022-09-15T03:33:39.395Z,3.93
2022-09-15T03:35:42.350Z,3.13
2022-09-15T03:37:45.782Z,3.40
2022-09-15T03:39:48.988Z,3.03
2022-09-15T03:41:53.413Z,3.00
2022-09-15T03:43:56.677Z,2.90
2022-09-15T03:45:59.800Z,2.73
2022-09-15T03:48:03.258Z,2.80
2022-09-15T03:50:08.020Z,3.30
2022-09-15T03:52:12.157Z,3.10
2022-09-15T03:54:15.159Z,2.80
2022-09-15T03:56:23.430Z,2.80
2022-09-15T03:58:30.625Z,2.70
2022-09-15T04:00:34.185Z,2.87
2022-09-15T04:02:37.140Z,3.30
2022-09-15T04:04:40.117Z,2.50
2022-09-15T04:06:43.027Z,2.57
2022-09-15T04:08:45.995Z,2.93
2022-09-15T04:10:49.139Z,2.87
2022-09-15T04:12:52.336Z,2.50
2022-09-15T04:14:56.742Z,2.50
2022-09-15T04:16:59.722Z,2.27
2022-09-15T04:19:02.695Z,2.60
2022-09-15T04:21:08.287Z,2.40
2022-09-15T04:23:11.803Z,2.33
2022-09-15T04:25:14.775Z,2.40
2022-09-15T04:27:18.241Z,2.50
2022-09-15T04:29:21.237Z,2.50
2022-09-15T04:31:25.781Z,2.43
2022-09-15T04:33:28.807Z,2.53
2022-09-15T04:35:31.713Z,2.47
2022-09-15T04:37:36.376Z,2.30
2022-09-15T04:39:39.820Z,2.17
2022-09-15T04:41:43.035Z,2.80
2022-09-15T04:43:45.984Z,2.60
2022-09-15T04:45:48.986Z,1.80
2022-09-15T04:47:53.364Z,2.30
2022-09-15T04:49:56.359Z,2.37
2022-09-15T04:51:59.295Z,2.03
2022-09-15T04:54:02.264Z,2.00
2022-09-15T04:56:05.980Z,1.77
2022-09-15T04:58:09.231Z,2.13
2022-09-15T05:00:13.906Z,2.40
2022-09-15T05:02:17.043Z,2.30
2022-09-15T05:04:21.673Z,1.90
2022-09-15T05:06:26.782Z,1.93
2022-09-15T05:08:29.991Z,2.70
2022-09-15T05:10:33.142Z,2.20
2022-09-15T05:12:36.115Z,2.33
2022-09-15T05:14:39.298Z,2.33
2022-09-15T05:16:42.455Z,2.50
2022-09-15T05:18:47.401Z,2.10
2022-09-15T05:20:59.208Z,2.90
2022-09-15T05:23:02.114Z,2.30
2022-09-15T05:25:05.894Z,2.87
2022-09-15T05:27:08.856Z,2.23
2022-09-15T05:29:11.938Z,2.50
2022-09-15T05:31:18.707Z,2.33
2022-09-15T05:33:22.758Z,2.63
2022-09-15T05:35:25.791Z,2.30
2022-09-15T05:37:30.217Z,2.40
2022-09-15T05:39:33.296Z,2.57
2022-09-15T05:41:36.258Z,2.20
2022-09-15T05:43:40.351Z,2.53
2022-09-15T05:45:43.406Z,2.40
2022-09-15T05:47:46.394Z,2.60
2022-09-15T05:49:49.411Z,2.70
2022-09-15T05:51:52.410Z,2.50
2022-09-15T05:53:56.808Z,2.77
2022-09-15T05:56:01.427Z,2.40
2022-09-15T05:58:05.010Z,2.80
2022-09-15T06:00:09.448Z,2.80
2022-09-15T06:02:15.257Z,2.90
2022-09-15T06:04:18.924Z,2.33
2022-09-15T06:06:22.809Z,2.43
2022-09-15T06:08:25.904Z,2.20
2022-09-15T06:10:30.376Z,2.50
2022-09-15T06:12:33.574Z,2.37
2022-09-15T06:14:36.840Z,2.60
2022-09-15T06:16:39.975Z,2.50
2022-09-15T06:18:43.271Z,2.30
2022-09-15T06:20:46.252Z,3.90
2022-09-15T06:22:49.266Z,2.70
2022-09-15T06:24:52.899Z,2.70
2022-09-15T06:26:57.256Z,2.13
2022-09-15T06:29:01.660Z,2.70
2022-09-15T06:31:04.862Z,3.43
2022-09-15T06:33:07.830Z,2.77
2022-09-15T06:35:10.973Z,4.43
2022-09-15T06:37:13.980Z,2.20
2022-09-15T06:39:17.273Z,2.40
2022-09-15T06:41:20.397Z,3.50
2022-09-15T06:43:24.716Z,3.10
2022-09-15T06:45:27.678Z,2.50
2022-09-15T06:47:34.061Z,2.67
2022-09-15T06:49:37.231Z,2.50
2022-09-15T06:51:40.207Z,2.67
2022-09-15T06:53:43.795Z,2.80
2022-09-15T06:55:46.927Z,2.90
2022-09-15T06:57:50.999Z,2.77
2022-09-15T06:59:55.408Z,2.77
2022-09-15T07:02:02.689Z,2.67
2022-09-15T07:04:09.883Z,2.90
2022-09-15T07:06:13.126Z,3.40
2022-09-15T07:08:16.319Z,2.90
2022-09-15T07:10:19.883Z,2.60
2022-09-15T07:12:22.865Z,2.80
2022-09-15T07:14:25.981Z,3.10
2022-09-15T07:16:30.740Z,4.60
2022-09-15T07:18:34.208Z,3.57
2022-09-15T07:20:39.681Z,3.40
2022-09-15T07:22:44.123Z,3.70
2022-09-15T07:24:47.098Z,3.37
2022-09-15T07:26:50.123Z,3.30
2022-09-15T07:28:57.522Z,3.60
2022-09-15T07:31:00.543Z,3.17
2022-09-15T07:33:05.324Z,3.00
2022-09-15T07:35:08.771Z,3.10
2022-09-15T07:37:11.836Z,2.80
2022-09-15T07:39:14.776Z,2.70
2022-09-15T07:41:19.514Z,2.83
2022-09-15T07:43:22.554Z,2.53
2022-09-15T07:45:25.577Z,2.40
2022-09-15T07:47:28.602Z,2.87
2022-09-15T07:49:32.974Z,2.47
2022-09-15T07:51:36.118Z,4.10
2022-09-15T07:53:39.257Z,3.67
2022-09-15T07:55:42.268Z,2.50
2022-09-15T07:57:45.245Z,2.77
2022-09-15T07:59:48.288Z,2.53
2022-09-15T08:01:51.352Z,2.70
2022-09-15T08:03:55.153Z,2.37
2022-09-15T08:06:00.575Z,2.50
2022-09-15T08:08:03.939Z,2.50
2022-09-15T08:10:07.983Z,2.70
2022-09-15T08:12:11.091Z,2.60
2022-09-15T08:14:14.217Z,2.33
2022-09-15T08:16:19.455Z,2.50
2022-09-15T08:18:22.744Z,2.83
2022-09-15T08:20:25.731Z,2.50
2022-09-15T08:22:30.056Z,2.80
2022-09-15T08:24:33.066Z,3.20
2022-09-15T08:26:38.364Z,2.80
2022-09-15T08:28:41.686Z,4.17
2022-09-15T08:30:44.849Z,2.90
2022-09-15T08:32:47.957Z,9.37
2022-09-15T08:34:51.008Z,3.00
2022-09-15T08:36:54.213Z,2.27
2022-09-15T08:38:58.759Z,2.00
2022-09-15T08:41:04.796Z,2.80
2022-09-15T08:43:15.074Z,2.67
2022-09-15T08:45:22.440Z,2.20
2022-09-15T08:47:29.092Z,2.00
2022-09-15T08:49:51.180Z,1.80
2022-09-15T08:51:55.083Z,2.10
2022-09-15T08:54:03.517Z,2.20
2022-09-15T08:56:14.332Z,2.23
2022-09-15T08:58:19.377Z,1.90
2022-09-15T09:00:22.515Z,1.93
2022-09-15T09:02:48.595Z,2.20
2022-09-15T09:05:05.890Z,2.10
2022-09-15T09:07:20.964Z,2.07
2022-09-15T09:09:35.674Z,1.70
2022-09-15T09:12:01.882Z,1.67
2022-09-15T09:14:14.277Z,1.20
2022-09-15T09:16:34.991Z,1.50
2022-09-15T09:18:54.456Z,1.30
2022-09-15T09:21:03.157Z,1.40
2022-09-15T09:23:10.827Z,1.20
2022-09-15T09:25:27.226Z,1.33
2022-09-15T09:27:33.838Z,1.10
2022-09-15T09:29:41.078Z,1.00
2022-09-15T09:31:44.389Z,0.87
2022-09-15T09:33:51.949Z,1.03
2022-09-15T09:35:54.917Z,1.10
2022-09-15T09:37:59.993Z,1.17
2022-09-15T09:40:03.593Z,1.00
2022-09-15T09:42:09.008Z,1.10
2022-09-15T09:44:14.791Z,0.70
2022-09-15T09:46:19.667Z,0.70
2022-09-15T09:48:26.260Z,0.60
2022-09-15T09:50:36.519Z,0.70
2022-09-15T09:52:40.865Z,0.83
2022-09-15T09:54:44.628Z,0.60
2022-09-15T09:56:48.544Z,0.80
2022-09-15T09:58:53.770Z,0.70
2022-09-15T10:01:10.705Z,0.70
2022-09-15T10:03:17.373Z,0.70
2022-09-15T10:05:21.601Z,0.80
2022-09-15T10:07:26.856Z,0.60
2022-09-15T10:09:33.248Z,0.80
2022-09-15T10:11:42.428Z,0.90
2022-09-15T10:13:53.647Z,0.90
2022-09-15T10:15:58.699Z,0.70
2022-09-15T10:18:02.285Z,0.63
2022-09-15T10:20:06.837Z,1.37
2022-09-15T10:22:09.964Z,0.60
2022-09-15T10:24:26.376Z,0.77
2022-09-15T10:26:33.260Z,0.87
2022-09-15T10:28:37.422Z,0.70
2022-09-15T10:30:59.414Z,0.70
2022-09-15T10:33:19.634Z,0.60
2022-09-15T10:35:22.686Z,0.80
2022-09-15T10:37:28.891Z,0.53
2022-09-15T10:39:38.826Z,0.77
2022-09-15T10:41:46.998Z,0.70
2022-09-15T10:44:02.018Z,0.53
2022-09-15T10:46:10.290Z,0.60
2022-09-15T10:48:36.698Z,0.60
2022-09-15T10:50:48.305Z,0.40
2022-09-15T10:53:05.996Z,0.57
2022-09-15T10:55:27.779Z,0.60
2022-09-15T10:57:57.559Z,0.70
2022-09-15T11:00:04.695Z,0.77
2022-09-15T11:02:24.938Z,0.77
2022-09-15T11:04:48.448Z,1.00
2022-09-15T11:06:56.013Z,1.10
2022-09-15T11:09:16.247Z,1.47
2022-09-15T11:11:27.897Z,1.70
2022-09-15T11:13:36.219Z,1.90
2022-09-15T11:15:49.455Z,2.20
2022-09-15T11:18:05.757Z,2.17
2022-09-15T11:20:33.723Z,2.20
2022-09-15T11:22:40.132Z,2.57
2022-09-15T11:24:47.953Z,2.50
2022-09-15T11:26:56.333Z,2.30
2022-09-15T11:29:01.301Z,2.10
2022-09-15T11:31:08.358Z,1.77
2022-09-15T11:33:18.990Z,2.30
2022-09-15T11:35:35.994Z,2.33
2022-09-15T11:37:42.482Z,2.73
2022-09-15T11:39:48.471Z,2.70
2022-09-15T11:41:56.484Z,2.83
2022-09-15T11:44:16.738Z,2.50
2022-09-15T11:46:33.195Z,3.00
2022-09-15T11:48:41.676Z,2.40
2022-09-15T11:50:46.905Z,2.53
2022-09-15T11:52:54.477Z,2.93
2022-09-15T11:55:02.001Z,3.00
2022-09-15T11:57:05.309Z,3.20
2022-09-15T11:59:18.269Z,3.40
2022-09-15T12:01:23.374Z,3.67
2022-09-15T12:03:30.375Z,2.80
2022-09-15T12:05:38.227Z,3.83
2022-09-15T12:07:45.784Z,3.30
2022-09-15T12:09:49.867Z,3.90
2022-09-15T12:11:56.105Z,2.90
2022-09-15T12:14:00.230Z,3.33
2022-09-15T12:16:05.043Z,3.50
2022-09-15T12:18:37.141Z,3.67
2022-09-15T12:20:46.091Z,3.20
2022-09-15T12:22:53.043Z,4.00
2022-09-15T12:25:01.386Z,3.70
2022-09-15T12:27:04.915Z,3.53
2022-09-15T12:29:34.950Z,5.20
2022-09-15T12:31:40.812Z,4.80
2022-09-15T12:33:47.220Z,4.63
2022-09-15T12:35:51.739Z,4.20
2022-09-15T12:37:56.276Z,4.77
2022-09-15T12:39:59.352Z,5.13
2022-09-15T12:42:20.751Z,3.77
2022-09-15T12:44:28.365Z,3.60
2022-09-15T12:46:32.999Z,4.00
2022-09-15T12:48:36.765Z,3.30
2022-09-15T12:50:41.346Z,3.80
2022-09-15T12:52:47.320Z,3.60
2022-09-15T12:54:54.089Z,4.03
2022-09-15T12:56:57.615Z,3.97
2022-09-15T12:59:06.671Z,4.27
2022-09-15T13:01:31.718Z,5.10
2022-09-15T13:04:08.134Z,16.13
2022-09-15T13:06:21.215Z,4.50
2022-09-15T13:09:00.545Z,4.90
2022-09-15T13:11:08.039Z,5.97
2022-09-15T13:13:21.697Z,5.40
2022-09-15T13:15:26.235Z,5.60
2022-09-15T13:17:30.202Z,5.57
2022-09-15T13:19:41.548Z,5.20
2022-09-15T13:21:48.256Z,5.30
2022-09-15T13:23:53.103Z,5.50
2022-09-15T13:25:58.124Z,5.97
2022-09-15T13:28:03.805Z,6.23
2022-09-15T13:30:19.973Z,5.90
2022-09-15T13:32:34.406Z,7.73
2022-09-15T13:35:05.447Z,7.37
2022-09-15T13:40:28.212Z,7.30
2022-09-15T13:42:39.876Z,6.87
2022-09-15T13:44:55.824Z,6.90
2022-09-15T13:47:09.003Z,7.37
2022-09-15T13:49:32.759Z,7.30
2022-09-15T13:51:35.923Z,8.30
2022-09-15T13:53:43.702Z,7.60
2022-09-15T13:55:46.722Z,8.33
2022-09-15T14:00:22.942Z,8.00
2022-09-15T14:02:26.190Z,8.03
2022-09-15T14:04:31.064Z,7.90
2022-09-15T14:06:36.786Z,8.20
2022-09-15T14:08:40.334Z,7.70
2022-09-15T14:10:51.581Z,8.27
2022-09-15T14:12:55.127Z,7.50
2022-09-15T14:14:59.187Z,6.80
2022-09-15T14:17:04.078Z,6.60
2022-09-15T14:19:31.149Z,5.60
2022-09-15T14:21:35.019Z,6.70
2022-09-15T14:23:46.553Z,6.77
2022-09-15T14:25:50.204Z,6.47
2022-09-15T14:27:54.964Z,6.30
2022-09-15T14:29:59.142Z,6.50
2022-09-15T14:32:04.096Z,5.23
2022-09-15T14:34:09.729Z,5.70
2022-09-15T14:36:22.146Z,4.67
2022-09-15T14:38:26.708Z,4.70
2022-09-15T14:40:31.886Z,4.47
2022-09-15T14:42:36.830Z,3.90
2022-09-15T14:47:13.436Z,3.80
2022-09-15T14:49:16.666Z,3.30
2022-09-15T14:51:22.434Z,3.50
2022-09-15T14:53:26.559Z,3.60
2022-09-15T14:55:31.068Z,3.43
2022-09-15T14:57:36.712Z,3.80
2022-09-15T14:59:43.266Z,3.80
2022-09-15T15:01:50.465Z,3.00
2022-09-15T15:03:59.453Z,3.50
2022-09-15T15:06:28.375Z,3.73
2022-09-15T15:08:35.103Z,4.10
2022-09-15T15:10:38.594Z,4.20
2022-09-15T15:12:43.605Z,4.10
2022-09-15T15:14:46.682Z,4.17
2022-09-15T15:16:53.892Z,4.00
2022-09-15T15:18:58.810Z,4.30
2022-09-15T15:21:01.870Z,4.40
2022-09-15T15:23:13.764Z,4.20
2022-09-15T15:25:25.931Z,4.27
2022-09-15T15:27:42.907Z,4.13
2022-09-15T15:29:47.157Z,4.63
2022-09-15T15:31:50.262Z,10.97
2022-09-15T15:33:55.846Z,4.03
2022-09-15T15:36:06.300Z,4.10
2022-09-15T15:38:16.578Z,4.10
2022-09-15T15:40:23.137Z,3.73
2022-09-15T15:42:28.575Z,3.73
2022-09-15T15:44:33.137Z,4.70
2022-09-15T15:46:47.879Z,4.03
2022-09-15T15:48:52.394Z,5.00
2022-09-15T15:50:56.119Z,4.73
2022-09-15T15:53:02.690Z,4.40
2022-09-15T15:55:06.835Z,4.90
2022-09-15T15:57:22.546Z,5.73
2022-09-15T15:59:25.570Z,5.20
2022-09-15T16:01:28.703Z,4.83
2022-09-15T16:03:31.747Z,4.37
2022-09-15T16:05:37.264Z,5.07
2022-09-15T16:07:40.808Z,4.60
2022-09-15T16:09:45.465Z,4.90
2022-09-15T16:11:48.744Z,5.13
2022-09-15T16:13:51.951Z,5.07
2022-09-15T16:15:56.753Z,5.30
2022-09-15T16:17:59.899Z,5.00
2022-09-15T16:20:03.416Z,5.20
2022-09-15T16:22:06.478Z,4.80
2022-09-15T16:24:13.525Z,5.27
2022-09-15T16:26:20.000Z,4.70
2022-09-15T16:28:23.279Z,5.07
2022-09-15T16:30:26.324Z,4.83
2022-09-15T16:32:31.402Z,5.40
2022-09-15T16:34:34.427Z,5.27
2022-09-15T16:36:37.413Z,5.90
2022-09-15T16:38:40.721Z,5.60
2022-09-15T16:40:43.714Z,5.43
2022-09-15T16:42:48.148Z,6.00
2022-09-15T16:44:51.173Z,5.30
2022-09-15T16:46:54.275Z,5.53
2022-09-15T16:48:57.352Z,5.53
2022-09-15T16:53:25.972Z,5.57
2022-09-15T16:55:35.760Z,6.13
2022-09-15T16:57:38.801Z,6.50
2022-09-15T16:59:43.183Z,7.00
2022-09-15T17:01:46.253Z,6.73
2022-09-15T17:03:49.609Z,6.70
2022-09-15T17:05:54.065Z,6.83
2022-09-15T17:07:57.187Z,6.80
2022-09-15T17:10:00.308Z,6.53
2022-09-15T17:12:04.609Z,6.43
2022-09-15T17:14:07.741Z,6.63
2022-09-15T17:16:14.069Z,7.10
2022-09-15T17:18:18.008Z,7.03
2022-09-15T17:20:21.726Z,7.20
2022-09-15T17:22:24.768Z,6.40
2022-09-15T17:24:27.749Z,7.27
2022-09-15T17:26:31.699Z,6.70
2022-09-15T17:28:36.559Z,7.00
2022-09-15T17:30:39.544Z,6.60
2022-09-15T17:32:44.276Z,6.43
2022-09-15T17:34:47.329Z,6.60
2022-09-15T17:36:50.332Z,6.40
2022-09-15T17:38:53.483Z,7.33
2022-09-15T17:40:56.671Z,7.10
2022-09-15T17:43:00.577Z,6.87
2022-09-15T17:45:03.730Z,7.10
2022-09-15T17:47:07.113Z,7.63
2022-09-15T17:49:11.916Z,8.37
2022-09-15T17:51:17.036Z,7.20
2022-09-15T17:53:22.720Z,7.30
2022-09-15T17:55:28.515Z,7.10
2022-09-15T17:57:31.627Z,7.20
2022-09-15T17:59:34.947Z,7.67
2022-09-15T18:01:38.087Z,8.10
2022-09-15T18:03:41.288Z,8.80
2022-09-15T18:05:45.795Z,7.30
2022-09-15T18:07:48.976Z,7.30
2022-09-15T18:09:51.951Z,8.00
2022-09-15T18:11:54.995Z,7.73
2022-09-15T18:13:58.514Z,8.40
2022-09-15T18:16:05.664Z,8.37
2022-09-15T18:18:14.705Z,8.70
2022-09-15T18:20:20.519Z,8.20
2022-09-15T18:22:25.419Z,10.97
2022-09-15T18:24:29.814Z,8.80
2022-09-15T18:26:33.052Z,7.90
2022-09-15T18:28:36.238Z,12.40
2022-09-15T18:30:41.809Z,9.70
2022-09-15T18:32:45.068Z,8.70
2022-09-15T18:34:49.035Z,8.73
2022-09-15T18:36:52.064Z,8.20
2022-09-15T18:38:56.424Z,7.53
2022-09-15T18:41:00.162Z,7.57
2022-09-15T18:43:03.315Z,7.40
2022-09-15T18:45:07.723Z,6.37
2022-09-15T18:47:10.739Z,8.60
2022-09-15T18:49:14.025Z,10.13
2022-09-15T18:51:24.113Z,9.47
2022-09-15T18:53:32.325Z,10.20
2022-09-15T18:55:36.742Z,9.30
2022-09-15T18:57:41.588Z,10.90
2022-09-15T18:59:44.744Z,9.90
2022-09-15T19:01:47.855Z,10.60
2022-09-15T19:03:51.073Z,10.20
2022-09-15T19:05:55.221Z,9.20
2022-09-15T19:07:58.622Z,8.90
2022-09-15T19:10:01.653Z,9.50
2022-09-15T19:12:06.227Z,9.40
2022-09-15T19:14:09.270Z,8.70
2022-09-15T19:16:12.375Z,9.47
2022-09-15T19:18:15.464Z,8.30
2022-09-15T19:20:18.657Z,10.00
2022-09-15T19:22:21.799Z,9.30
2022-09-15T19:24:26.525Z,9.03
2022-09-15T19:26:29.628Z,9.23
2022-09-15T19:28:34.156Z,10.30
2022-09-15T19:30:37.383Z,14.90
2022-09-15T19:32:41.162Z,15.17
2022-09-15T19:34:44.227Z,12.53
2022-09-15T19:36:47.434Z,10.53
2022-09-15T19:38:50.465Z,9.97
2022-09-15T19:40:53.530Z,10.40
2022-09-15T19:42:56.560Z,9.77
2022-09-15T19:45:00.899Z,9.10
2022-09-15T19:47:04.202Z,9.20
2022-09-15T19:49:07.781Z,8.60
2022-09-15T19:51:12.521Z,8.90
2022-09-15T19:53:15.538Z,8.93
2022-09-15T19:55:18.936Z,9.87
2022-09-15T19:57:22.567Z,8.87
2022-09-15T19:59:30.768Z,9.20
2022-09-15T20:01:35.950Z,9.13
2022-09-15T20:03:39.191Z,8.83
2022-09-15T20:05:42.220Z,9.73
2022-09-15T20:07:48.005Z,9.33
2022-09-15T20:09:53.447Z,9.80
2022-09-15T20:11:56.508Z,9.10
2022-09-15T20:14:01.190Z,9.80
2022-09-15T20:16:04.525Z,8.97
2022-09-15T20:18:12.167Z,9.33
2022-09-15T20:20:15.238Z,9.10
2022-09-15T20:22:18.294Z,8.60
2022-09-15T20:24:22.054Z,8.53
2022-09-15T20:26:25.391Z,8.70
2022-09-15T20:28:29.421Z,9.20
2022-09-15T20:30:32.542Z,19.00
2022-09-15T20:32:35.628Z,13.30
2022-09-15T20:34:40.129Z,9.33
2022-09-15T20:36:44.119Z,8.70
2022-09-15T20:38:48.801Z,8.43
2022-09-15T20:40:55.221Z,9.00
2022-09-15T20:42:58.275Z,9.60
2022-09-15T20:45:01.349Z,8.80
2022-09-15T20:47:04.517Z,9.30
2022-09-15T20:49:07.905Z,10.43
2022-09-15T20:51:15.363Z,9.10
2022-09-15T20:53:18.474Z,9.70
2022-09-15T20:55:21.657Z,9.83
2022-09-15T20:57:24.712Z,10.03
2022-09-15T20:59:27.727Z,9.70
2022-09-15T21:01:34.149Z,9.27
2022-09-15T21:03:39.112Z,9.33
2022-09-15T21:05:42.148Z,9.83
2022-09-15T21:07:48.703Z,8.93
2022-09-15T21:09:51.665Z,8.70
2022-09-15T21:11:54.823Z,9.87
2022-09-15T21:13:58.706Z,10.23
2022-09-15T21:16:02.935Z,10.30
2022-09-15T21:18:06.029Z,9.87
2022-09-15T21:20:10.199Z,9.90
2022-09-15T21:22:13.194Z,10.10
2022-09-15T21:24:17.600Z,9.43
2022-09-15T21:26:22.629Z,10.40
2022-09-15T21:28:24.881Z,10.13
2022-09-15T21:30:27.842Z,10.50
2022-09-15T21:32:31.119Z,9.03
2022-09-15T21:34:34.124Z,8.57
2022-09-15T21:36:37.481Z,8.43
2022-09-15T21:38:42.970Z,9.10
2022-09-15T21:40:49.790Z,8.10
2022-09-15T21:42:53.021Z,7.40
2022-09-15T21:44:56.216Z,7.40
2022-09-15T21:46:59.367Z,8.00
2022-09-15T21:49:02.334Z,7.27
2022-09-15T21:51:06.809Z,7.47
2022-09-15T21:53:09.740Z,6.50
2022-09-15T21:55:12.801Z,7.03
2022-09-15T21:57:17.503Z,6.87
2022-09-15T21:59:20.502Z,6.10
2022-09-15T22:01:25.745Z,6.60
2022-09-15T22:03:29.028Z,6.83
2022-09-15T22:05:32.123Z,6.90
2022-09-15T22:07:35.177Z,6.47
2022-09-15T22:09:39.482Z,7.03
2022-09-15T22:11:42.737Z,6.87
2022-09-15T22:13:47.129Z,7.60
2022-09-15T22:15:50.080Z,6.80
2022-09-15T22:17:53.504Z,6.57
2022-09-15T22:19:56.444Z,6.93
2022-09-15T22:21:59.443Z,6.87
2022-09-15T22:24:04.343Z,6.63
2022-09-15T22:26:08.886Z,6.63
2022-09-15T22:28:11.860Z,7.27
2022-09-15T22:30:16.361Z,7.10
2022-09-15T22:32:19.378Z,8.10
2022-09-15T22:34:22.346Z,7.00
2022-09-15T22:36:29.654Z,7.30
2022-09-15T22:38:33.387Z,6.63
2022-09-15T22:40:36.608Z,7.37
2022-09-15T22:42:39.717Z,7.13
2022-09-15T22:44:42.738Z,8.40
2022-09-15T22:46:47.138Z,8.63
2022-09-15T22:48:50.182Z,8.40
2022-09-15T22:50:53.119Z,8.47
2022-09-15T22:52:56.574Z,7.60
2022-09-15T22:54:59.541Z,6.23
2022-09-15T22:57:02.520Z,7.23
2022-09-15T22:59:05.840Z,7.73
2022-09-15T23:01:10.524Z,7.60
2022-09-15T23:03:14.895Z,7.17
2022-09-15T23:05:18.097Z,7.23
2022-09-15T23:07:21.102Z,6.47
2022-09-15T23:09:24.226Z,6.20
2022-09-15T23:11:28.225Z,6.47
2022-09-15T23:13:31.249Z,6.00
2022-09-15T23:15:35.281Z,6.30
2022-09-15T23:17:39.017Z,7.57
2022-09-15T23:19:44.435Z,6.93
2022-09-15T23:21:47.515Z,7.03
2022-09-15T23:23:50.618Z,5.93
2022-09-15T23:25:53.719Z,6.10
2022-09-15T23:27:56.685Z,6.90
2022-09-15T23:29:59.668Z,6.43
2022-09-15T23:32:03.155Z,5.73
2022-09-15T23:34:06.086Z,5.77
2022-09-15T23:36:13.724Z,5.23
2022-09-15T23:38:17.585Z,5.93
2022-09-15T23:40:20.989Z,5.73
2022-09-15T23:42:24.059Z,5.77
2022-09-15T23:44:27.106Z,5.63
2022-09-15T23:46:30.252Z,5.87
2022-09-15T23:48:33.500Z,7.00
2022-09-15T23:50:36.997Z,7.97
2022-09-15T23:52:41.316Z,6.30
2022-09-15T23:54:44.246Z,6.43
2022-09-15T23:56:47.182Z,6.30
2022-09-15T23:58:50.652Z,5.97
